<?xml version="1.0" encoding="UTF-8" standalone="no" ?>
<gpx xmlns="http://www.topografix.com/GPX/1/1" xmlns:xsi="http://www.w3.org/2001/XMLSchema-instance" xsi:schemaLocation="http://www.topografix.com/GPX/1/1 http://www.topografix.com/GPX/1/1/gpx.xsd" version="1.1" creator="VisuGPX - https://www.visugpx.com">
  <metadata>
    <name>RochefortEnTerre_PinsMoulinNeuf_Malansac_14-19km</name>
    <desc><![CDATA[gnerando idor:7901395_8151206_8308528]]></desc>
  </metadata>
  <trk>
    <name><![CDATA[RochefortTerre_Malansac_19.2km-8308528]]></name>
    <extensions>
      <line xmlns="http://www.topografix.com/GPX/gpx_style/0/2">
        <color>FF0000</color>
        <width>4</width>
      </line>
    </extensions>
    <trkseg>
      <trkpt lat="47.6995" lon="-2.3364">
        <ele>50</ele>
        <time>2023-11-11T19:12:11Z</time>
      </trkpt>
      <trkpt lat="47.70158" lon="-2.33769">
        <ele>30</ele>
        <time>2023-11-11T19:17:12Z</time>
      </trkpt>
      <trkpt lat="47.70199" lon="-2.33528">
        <ele>40</ele>
        <time>2023-11-11T19:20:55Z</time>
      </trkpt>
      <trkpt lat="47.70072" lon="-2.33108">
        <ele>42</ele>
        <time>2023-11-11T19:27:49Z</time>
      </trkpt>
      <trkpt lat="47.6995" lon="-2.32576">
        <ele>57</ele>
        <time>2023-11-11T19:36:13Z</time>
      </trkpt>
      <trkpt lat="47.70031" lon="-2.32318">
        <ele>67</ele>
        <time>2023-11-11T19:40:29Z</time>
      </trkpt>
      <trkpt lat="47.70106" lon="-2.3164">
        <ele>80</ele>
        <time>2023-11-11T19:50:46Z</time>
      </trkpt>
      <trkpt lat="47.701" lon="-2.31468">
        <ele>79</ele>
        <time>2023-11-11T19:53:21Z</time>
      </trkpt>
      <trkpt lat="47.70158" lon="-2.31228">
        <ele>80</ele>
        <time>2023-11-11T19:57:10Z</time>
      </trkpt>
      <trkpt lat="47.70147" lon="-2.30996">
        <ele>79</ele>
        <time>2023-11-11T20:00:39Z</time>
      </trkpt>
      <trkpt lat="47.70025" lon="-2.30876">
        <ele>78</ele>
        <time>2023-11-11T20:03:54Z</time>
      </trkpt>
      <trkpt lat="47.70048" lon="-2.30765">
        <ele>77</ele>
        <time>2023-11-11T20:05:38Z</time>
      </trkpt>
      <trkpt lat="47.70274" lon="-2.30027">
        <ele>69</ele>
        <time>2023-11-11T20:17:46Z</time>
      </trkpt>
      <trkpt lat="47.69935" lon="-2.29947">
        <ele>59</ele>
        <time>2023-11-11T20:25:24Z</time>
      </trkpt>
      <trkpt lat="47.70006" lon="-2.29619">
        <ele>62</ele>
        <time>2023-11-11T20:30:34Z</time>
      </trkpt>
      <trkpt lat="47.69958" lon="-2.29318">
        <ele>60</ele>
        <time>2023-11-11T20:35:12Z</time>
      </trkpt>
      <trkpt lat="47.69924" lon="-2.29027">
        <ele>56</ele>
        <time>2023-11-11T20:39:37Z</time>
      </trkpt>
      <trkpt lat="47.69649" lon="-2.28874">
        <ele>43</ele>
        <time>2023-11-11T20:46:09Z</time>
      </trkpt>
      <trkpt lat="47.69549" lon="-2.28813">
        <ele>54</ele>
        <time>2023-11-11T20:48:33Z</time>
      </trkpt>
      <trkpt lat="47.69415" lon="-2.28629">
        <ele>70</ele>
        <time>2023-11-11T20:52:37Z</time>
      </trkpt>
      <trkpt lat="47.68928" lon="-2.28807">
        <ele>67</ele>
        <time>2023-11-11T21:03:46Z</time>
      </trkpt>
      <trkpt lat="47.68787" lon="-2.28802">
        <ele>75</ele>
        <time>2023-11-11T21:06:54Z</time>
      </trkpt>
      <trkpt lat="47.68752" lon="-2.287">
        <ele>76</ele>
        <time>2023-11-11T21:08:37Z</time>
      </trkpt>
      <trkpt lat="47.6866" lon="-2.28762">
        <ele>76</ele>
        <time>2023-11-11T21:10:52Z</time>
      </trkpt>
      <trkpt lat="47.68591" lon="-2.28792">
        <ele>77</ele>
        <time>2023-11-11T21:12:28Z</time>
      </trkpt>
      <trkpt lat="47.68563" lon="-2.28853">
        <ele>77</ele>
        <time>2023-11-11T21:13:34Z</time>
      </trkpt>
      <trkpt lat="47.68471" lon="-2.28869">
        <ele>76</ele>
        <time>2023-11-11T21:15:38Z</time>
      </trkpt>
      <trkpt lat="47.68423" lon="-2.29058">
        <ele>73</ele>
        <time>2023-11-11T21:18:39Z</time>
      </trkpt>
      <trkpt lat="47.68467" lon="-2.29185">
        <ele>71</ele>
        <time>2023-11-11T21:20:47Z</time>
      </trkpt>
      <trkpt lat="47.68515" lon="-2.29369">
        <ele>74</ele>
        <time>2023-11-11T21:23:45Z</time>
      </trkpt>
      <trkpt lat="47.68666" lon="-2.29701">
        <ele>77</ele>
        <time>2023-11-11T21:29:45Z</time>
      </trkpt>
      <trkpt lat="47.68739" lon="-2.30313">
        <ele>89</ele>
        <time>2023-11-11T21:39:03Z</time>
      </trkpt>
      <trkpt lat="47.68381" lon="-2.30211">
        <ele>83</ele>
        <time>2023-11-11T21:47:09Z</time>
      </trkpt>
      <trkpt lat="47.68275" lon="-2.30155">
        <ele>79</ele>
        <time>2023-11-11T21:49:40Z</time>
      </trkpt>
      <trkpt lat="47.68127" lon="-2.30369">
        <ele>79</ele>
        <time>2023-11-11T21:54:15Z</time>
      </trkpt>
      <trkpt lat="47.6788" lon="-2.30568">
        <ele>84</ele>
        <time>2023-11-11T22:00:30Z</time>
      </trkpt>
      <trkpt lat="47.67996" lon="-2.30931">
        <ele>83</ele>
        <time>2023-11-11T22:06:31Z</time>
      </trkpt>
      <trkpt lat="47.68151" lon="-2.31135">
        <ele>86</ele>
        <time>2023-11-11T22:11:08Z</time>
      </trkpt>
      <trkpt lat="47.68333" lon="-2.31655">
        <ele>83</ele>
        <time>2023-11-11T22:19:54Z</time>
      </trkpt>
      <trkpt lat="47.68299" lon="-2.32079">
        <ele>80</ele>
        <time>2023-11-11T22:26:18Z</time>
      </trkpt>
      <trkpt lat="47.68381" lon="-2.32431">
        <ele>81</ele>
        <time>2023-11-11T22:31:52Z</time>
      </trkpt>
      <trkpt lat="47.68539" lon="-2.32344">
        <ele>84</ele>
        <time>2023-11-11T22:35:37Z</time>
      </trkpt>
      <trkpt lat="47.68584" lon="-2.32497">
        <ele>84</ele>
        <time>2023-11-11T22:38:07Z</time>
      </trkpt>
      <trkpt lat="47.68423" lon="-2.32625">
        <ele>81</ele>
        <time>2023-11-11T22:42:11Z</time>
      </trkpt>
      <trkpt lat="47.6835" lon="-2.32916">
        <ele>80</ele>
        <time>2023-11-11T22:46:50Z</time>
      </trkpt>
      <trkpt lat="47.68268" lon="-2.33003">
        <ele>82</ele>
        <time>2023-11-11T22:49:04Z</time>
      </trkpt>
      <trkpt lat="47.68337" lon="-2.33094">
        <ele>82</ele>
        <time>2023-11-11T22:51:07Z</time>
      </trkpt>
      <trkpt lat="47.68429" lon="-2.331">
        <ele>78</ele>
        <time>2023-11-11T22:53:10Z</time>
      </trkpt>
      <trkpt lat="47.68498" lon="-2.33227">
        <ele>74</ele>
        <time>2023-11-11T22:55:37Z</time>
      </trkpt>
      <trkpt lat="47.68488" lon="-2.33457">
        <ele>68</ele>
        <time>2023-11-11T22:59:04Z</time>
      </trkpt>
      <trkpt lat="47.68618" lon="-2.33732">
        <ele>69</ele>
        <time>2023-11-11T23:04:06Z</time>
      </trkpt>
      <trkpt lat="47.68666" lon="-2.33988">
        <ele>72</ele>
        <time>2023-11-11T23:08:05Z</time>
      </trkpt>
      <trkpt lat="47.68677" lon="-2.34161">
        <ele>77</ele>
        <time>2023-11-11T23:10:41Z</time>
      </trkpt>
      <trkpt lat="47.68495" lon="-2.34243">
        <ele>76</ele>
        <time>2023-11-11T23:14:55Z</time>
      </trkpt>
      <trkpt lat="47.68275" lon="-2.34457">
        <ele>77</ele>
        <time>2023-11-11T23:20:45Z</time>
      </trkpt>
      <trkpt lat="47.68364" lon="-2.34942">
        <ele>76</ele>
        <time>2023-11-11T23:28:17Z</time>
      </trkpt>
      <trkpt lat="47.68553" lon="-2.34962">
        <ele>69</ele>
        <time>2023-11-11T23:32:30Z</time>
      </trkpt>
      <trkpt lat="47.68807" lon="-2.34687">
        <ele>60</ele>
        <time>2023-11-11T23:39:29Z</time>
      </trkpt>
      <trkpt lat="47.68873" lon="-2.34284">
        <ele>62</ele>
        <time>2023-11-11T23:45:42Z</time>
      </trkpt>
      <trkpt lat="47.69072" lon="-2.34202">
        <ele>50</ele>
        <time>2023-11-11T23:50:17Z</time>
      </trkpt>
      <trkpt lat="47.69058" lon="-2.34284">
        <ele>52</ele>
        <time>2023-11-11T23:51:33Z</time>
      </trkpt>
      <trkpt lat="47.69044" lon="-2.34513">
        <ele>50</ele>
        <time>2023-11-11T23:55:00Z</time>
      </trkpt>
      <trkpt lat="47.69065" lon="-2.34768">
        <ele>49</ele>
        <time>2023-11-11T23:58:51Z</time>
      </trkpt>
      <trkpt lat="47.68948" lon="-2.34886">
        <ele>47</ele>
        <time>2023-11-12T00:02:00Z</time>
      </trkpt>
      <trkpt lat="47.68869" lon="-2.34927">
        <ele>46</ele>
        <time>2023-11-12T00:03:51Z</time>
      </trkpt>
      <trkpt lat="47.68842" lon="-2.35018">
        <ele>46</ele>
        <time>2023-11-12T00:05:21Z</time>
      </trkpt>
      <trkpt lat="47.68876" lon="-2.3512">
        <ele>45</ele>
        <time>2023-11-12T00:07:03Z</time>
      </trkpt>
      <trkpt lat="47.68996" lon="-2.35192">
        <ele>45</ele>
        <time>2023-11-12T00:09:55Z</time>
      </trkpt>
      <trkpt lat="47.68969" lon="-2.35447">
        <ele>46</ele>
        <time>2023-11-12T00:13:47Z</time>
      </trkpt>
      <trkpt lat="47.68917" lon="-2.35636">
        <ele>45</ele>
        <time>2023-11-12T00:16:51Z</time>
      </trkpt>
      <trkpt lat="47.68931" lon="-2.35784">
        <ele>47</ele>
        <time>2023-11-12T00:19:05Z</time>
      </trkpt>
      <trkpt lat="47.68969" lon="-2.35876">
        <ele>48</ele>
        <time>2023-11-12T00:20:42Z</time>
      </trkpt>
      <trkpt lat="47.69058" lon="-2.35575">
        <ele>47</ele>
        <time>2023-11-12T00:25:37Z</time>
      </trkpt>
      <trkpt lat="47.69175" lon="-2.35381">
        <ele>55</ele>
        <time>2023-11-12T00:29:31Z</time>
      </trkpt>
      <trkpt lat="47.69209" lon="-2.35024">
        <ele>55</ele>
        <time>2023-11-12T00:34:55Z</time>
      </trkpt>
      <trkpt lat="47.69292" lon="-2.35018">
        <ele>63</ele>
        <time>2023-11-12T00:36:46Z</time>
      </trkpt>
      <trkpt lat="47.69347" lon="-2.35217">
        <ele>75</ele>
        <time>2023-11-12T00:39:59Z</time>
      </trkpt>
      <trkpt lat="47.69494" lon="-2.35345">
        <ele>77</ele>
        <time>2023-11-12T00:43:47Z</time>
      </trkpt>
      <trkpt lat="47.70016" lon="-2.35355">
        <ele>58</ele>
        <time>2023-11-12T00:55:23Z</time>
      </trkpt>
      <trkpt lat="47.70058" lon="-2.35442">
        <ele>56</ele>
        <time>2023-11-12T00:56:59Z</time>
      </trkpt>
      <trkpt lat="47.7015" lon="-2.3536">
        <ele>58</ele>
        <time>2023-11-12T00:59:23Z</time>
      </trkpt>
      <trkpt lat="47.70312" lon="-2.35238">
        <ele>49</ele>
        <time>2023-11-12T01:03:25Z</time>
      </trkpt>
      <trkpt lat="47.70405" lon="-2.35263">
        <ele>49</ele>
        <time>2023-11-12T01:05:31Z</time>
      </trkpt>
      <trkpt lat="47.70384" lon="-2.34886">
        <ele>49</ele>
        <time>2023-11-12T01:11:11Z</time>
      </trkpt>
      <trkpt lat="47.70312" lon="-2.34569">
        <ele>51</ele>
        <time>2023-11-12T01:16:11Z</time>
      </trkpt>
      <trkpt lat="47.7026" lon="-2.34222">
        <ele>47</ele>
        <time>2023-11-12T01:21:31Z</time>
      </trkpt>
      <trkpt lat="47.70192" lon="-2.34028">
        <ele>46</ele>
        <time>2023-11-12T01:24:47Z</time>
      </trkpt>
      <trkpt lat="47.70205" lon="-2.33773">
        <ele>32</ele>
        <time>2023-11-12T01:28:37Z</time>
      </trkpt>
      <trkpt lat="47.6992" lon="-2.336">
        <ele>51</ele>
        <time>2023-11-12T01:35:27Z</time>
      </trkpt>
    </trkseg>
  </trk>
</gpx>